sensor_id;sensor_type;location;lat;lon;timestamp;pressure;altitude;pressure_sealevel;temperature;humidity
61870;BME280;47810;42.264;23.826;2024-02-04T00:02:15;94023.22;;;5.32;69.04
61870;BME280;47810;42.264;23.826;2024-02-04T00:04:41;94021.78;;;5.25;69.45
61870;BME280;47810;42.264;23.826;2024-02-04T00:07:07;94030.06;;;5.36;69.23
61870;BME280;47810;42.264;23.826;2024-02-04T00:09:33;94035.28;;;5.36;68.83
61870;BME280;47810;42.264;23.826;2024-02-04T00:11:59;94036.31;;;5.32;69.18
61870;BME280;47810;42.264;23.826;2024-02-04T00:14:29;94028.44;;;5.32;69.02
61870;BME280;47810;42.264;23.826;2024-02-04T00:16:55;94039.97;;;5.28;68.96
61870;BME280;47810;42.264;23.826;2024-02-04T00:19:21;94048.22;;;5.19;69.57
61870;BME280;47810;42.264;23.826;2024-02-04T00:21:46;94050.84;;;5.19;69.55
61870;BME280;47810;42.264;23.826;2024-02-04T00:24:12;94068.53;;;5.34;69.51
61870;BME280;47810;42.264;23.826;2024-02-04T00:26:38;94067.47;;;5.18;69.62
61870;BME280;47810;42.264;23.826;2024-02-04T00:29:04;94058.84;;;5.36;69.18
61870;BME280;47810;42.264;23.826;2024-02-04T00:31:30;94063.66;;;5.25;70.19
61870;BME280;47810;42.264;23.826;2024-02-04T00:33:56;94070.75;;;5.23;69.66
61870;BME280;47810;42.264;23.826;2024-02-04T00:36:21;94055.91;;;5.02;68.86
61870;BME280;47810;42.264;23.826;2024-02-04T00:38:47;94066.19;;;4.84;69.43
61870;BME280;47810;42.264;23.826;2024-02-04T00:41:16;94063.47;;;4.87;70.69
61870;BME280;47810;42.264;23.826;2024-02-04T00:43:42;94061.53;;;4.93;70.73
61870;BME280;47810;42.264;23.826;2024-02-04T00:46:08;94060.19;;;4.82;70.57
61870;BME280;47810;42.264;23.826;2024-02-04T00:48:36;94068.16;;;5.01;70.42
61870;BME280;47810;42.264;23.826;2024-02-04T00:51:03;94063.69;;;5.03;70.48
61870;BME280;47810;42.264;23.826;2024-02-04T00:53:30;94075.00;;;5.04;70.62
61870;BME280;47810;42.264;23.826;2024-02-04T00:56:02;94077.56;;;5.05;70.23
61870;BME280;47810;42.264;23.826;2024-02-04T00:58:29;94079.38;;;5.03;70.25
61870;BME280;47810;42.264;23.826;2024-02-04T01:00:55;94070.66;;;4.82;70.12
61870;BME280;47810;42.264;23.826;2024-02-04T01:03:20;94066.16;;;4.64;70.54
61870;BME280;47810;42.264;23.826;2024-02-04T01:05:49;94064.00;;;4.96;70.26
61870;BME280;47810;42.264;23.826;2024-02-04T01:08:14;94071.13;;;4.70;69.54
61870;BME280;47810;42.264;23.826;2024-02-04T01:10:44;94070.16;;;4.51;69.51
61870;BME280;47810;42.264;23.826;2024-02-04T01:13:13;94069.72;;;4.16;70.55
61870;BME280;47810;42.264;23.826;2024-02-04T01:15:43;94065.50;;;3.88;71.48
61870;BME280;47810;42.264;23.826;2024-02-04T01:18:10;94048.13;;;3.87;71.13
61870;BME280;47810;42.264;23.826;2024-02-04T01:20:36;94049.78;;;3.66;72.39
61870;BME280;47810;42.264;23.826;2024-02-04T01:23:02;94055.94;;;3.64;72.80
61870;BME280;47810;42.264;23.826;2024-02-04T01:25:28;94062.75;;;3.43;73.78
61870;BME280;47810;42.264;23.826;2024-02-04T01:27:54;94036.25;;;3.55;73.85
61870;BME280;47810;42.264;23.826;2024-02-04T01:30:20;94043.25;;;3.53;73.59
61870;BME280;47810;42.264;23.826;2024-02-04T01:32:46;94034.63;;;3.76;72.71
61870;BME280;47810;42.264;23.826;2024-02-04T01:35:12;94039.75;;;3.79;72.24
61870;BME280;47810;42.264;23.826;2024-02-04T01:37:38;94043.13;;;3.81;71.93
61870;BME280;47810;42.264;23.826;2024-02-04T01:40:04;94034.75;;;3.96;72.23
61870;BME280;47810;42.264;23.826;2024-02-04T01:42:31;94029.84;;;4.11;71.80
61870;BME280;47810;42.264;23.826;2024-02-04T01:44:57;94046.19;;;4.16;71.43
61870;BME280;47810;42.264;23.826;2024-02-04T01:47:23;94051.63;;;4.11;71.88
61870;BME280;47810;42.264;23.826;2024-02-04T01:49:49;94037.31;;;4.43;72.49
61870;BME280;47810;42.264;23.826;2024-02-04T01:52:16;94047.84;;;4.64;71.93
61870;BME280;47810;42.264;23.826;2024-02-04T01:54:43;94042.72;;;4.83;71.35
61870;BME280;47810;42.264;23.826;2024-02-04T01:57:10;94036.16;;;4.95;71.94
61870;BME280;47810;42.264;23.826;2024-02-04T01:59:39;94049.25;;;4.95;71.99
61870;BME280;47810;42.264;23.826;2024-02-04T02:02:06;94059.31;;;5.04;71.07
61870;BME280;47810;42.264;23.826;2024-02-04T02:04:32;94033.53;;;4.95;71.80
61870;BME280;47810;42.264;23.826;2024-02-04T02:07:04;94048.72;;;5.07;70.51
61870;BME280;47810;42.264;23.826;2024-02-04T02:09:31;94050.94;;;4.96;71.91
61870;BME280;47810;42.264;23.826;2024-02-04T02:12:07;94037.06;;;4.94;71.09
61870;BME280;47810;42.264;23.826;2024-02-04T02:14:49;94032.53;;;4.97;71.23
61870;BME280;47810;42.264;23.826;2024-02-04T02:17:20;94028.31;;;4.73;73.33
61870;BME280;47810;42.264;23.826;2024-02-04T02:19:56;94028.00;;;4.80;72.45
61870;BME280;47810;42.264;23.826;2024-02-04T02:22:39;94009.91;;;4.76;72.90
61870;BME280;47810;42.264;23.826;2024-02-04T02:25:11;93998.34;;;5.02;72.20
61870;BME280;47810;42.264;23.826;2024-02-04T02:27:49;94005.72;;;4.92;71.86
61870;BME280;47810;42.264;23.826;2024-02-04T02:30:16;93988.16;;;5.36;72.77
61870;BME280;47810;42.264;23.826;2024-02-04T02:32:48;93979.03;;;6.24;69.55
61870;BME280;47810;42.264;23.826;2024-02-04T02:35:16;93981.09;;;6.17;68.23
61870;BME280;47810;42.264;23.826;2024-02-04T02:40:48;93974.16;;;5.97;69.26
61870;BME280;47810;42.264;23.826;2024-02-04T02:43:17;93985.72;;;5.92;69.89
61870;BME280;47810;42.264;23.826;2024-02-04T02:45:44;93983.72;;;5.78;70.61
61870;BME280;47810;42.264;23.826;2024-02-04T02:48:11;93978.91;;;5.88;70.86
61870;BME280;47810;42.264;23.826;2024-02-04T02:50:38;93986.25;;;5.79;70.68
61870;BME280;47810;42.264;23.826;2024-02-04T02:53:04;93970.25;;;5.67;71.58
61870;BME280;47810;42.264;23.826;2024-02-04T02:55:30;93968.09;;;5.56;72.23
61870;BME280;47810;42.264;23.826;2024-02-04T02:57:56;93974.50;;;5.69;71.92
61870;BME280;47810;42.264;23.826;2024-02-04T03:00:22;93978.19;;;5.65;72.49
61870;BME280;47810;42.264;23.826;2024-02-04T03:02:48;93972.19;;;5.61;72.69
61870;BME280;47810;42.264;23.826;2024-02-04T03:05:15;93977.13;;;5.49;73.55
61870;BME280;47810;42.264;23.826;2024-02-04T03:07:41;93977.34;;;5.44;74.19
61870;BME280;47810;42.264;23.826;2024-02-04T03:10:08;93969.00;;;5.55;73.14
61870;BME280;47810;42.264;23.826;2024-02-04T03:12:34;93972.16;;;5.63;73.52
61870;BME280;47810;42.264;23.826;2024-02-04T03:15:09;93981.38;;;5.72;72.62
61870;BME280;47810;42.264;23.826;2024-02-04T03:17:42;93982.97;;;5.74;73.15
61870;BME280;47810;42.264;23.826;2024-02-04T03:20:09;93981.56;;;5.67;73.22
61870;BME280;47810;42.264;23.826;2024-02-04T03:22:35;93963.47;;;5.81;73.64
61870;BME280;47810;42.264;23.826;2024-02-04T03:25:01;93973.25;;;5.78;73.92
61870;BME280;47810;42.264;23.826;2024-02-04T03:27:27;93972.19;;;5.61;74.05
61870;BME280;47810;42.264;23.826;2024-02-04T03:29:53;93966.56;;;5.71;73.53
61870;BME280;47810;42.264;23.826;2024-02-04T03:32:19;93970.03;;;5.71;73.20
61870;BME280;47810;42.264;23.826;2024-02-04T03:34:45;93963.50;;;5.61;74.34
61870;BME280;47810;42.264;23.826;2024-02-04T03:37:11;93956.50;;;5.80;73.21
61870;BME280;47810;42.264;23.826;2024-02-04T03:39:36;93951.84;;;5.68;74.50
61870;BME280;47810;42.264;23.826;2024-02-04T03:42:02;93954.47;;;5.68;73.98
61870;BME280;47810;42.264;23.826;2024-02-04T03:44:28;93952.97;;;5.63;74.83
61870;BME280;47810;42.264;23.826;2024-02-04T03:46:54;93943.69;;;5.74;73.97
61870;BME280;47810;42.264;23.826;2024-02-04T03:49:21;93949.03;;;5.92;72.74
61870;BME280;47810;42.264;23.826;2024-02-04T03:51:49;93935.88;;;5.93;72.32
61870;BME280;47810;42.264;23.826;2024-02-04T03:54:15;93933.31;;;5.92;72.92
61870;BME280;47810;42.264;23.826;2024-02-04T03:56:41;93924.25;;;5.99;72.75
61870;BME280;47810;42.264;23.826;2024-02-04T03:59:08;93943.78;;;5.92;73.87
61870;BME280;47810;42.264;23.826;2024-02-04T04:01:36;93936.44;;;6.00;72.35
61870;BME280;47810;42.264;23.826;2024-02-04T04:04:02;93919.72;;;6.21;72.56
61870;BME280;47810;42.264;23.826;2024-02-04T04:06:28;93920.41;;;6.61;69.62
61870;BME280;47810;42.264;23.826;2024-02-04T04:08:54;93937.94;;;6.78;68.40
61870;BME280;47810;42.264;23.826;2024-02-04T04:11:20;93912.03;;;8.38;59.60
61870;BME280;47810;42.264;23.826;2024-02-04T04:13:46;93898.69;;;9.17;56.10
61870;BME280;47810;42.264;23.826;2024-02-04T04:16:12;93894.66;;;9.40;55.36
61870;BME280;47810;42.264;23.826;2024-02-04T04:18:38;93886.41;;;9.75;53.65
61870;BME280;47810;42.264;23.826;2024-02-04T04:21:04;93883.41;;;9.67;53.88
61870;BME280;47810;42.264;23.826;2024-02-04T04:23:34;93888.69;;;9.95;53.32
61870;BME280;47810;42.264;23.826;2024-02-04T04:26:00;93891.66;;;10.03;53.05
61870;BME280;47810;42.264;23.826;2024-02-04T04:28:27;93902.22;;;10.03;53.81
61870;BME280;47810;42.264;23.826;2024-02-04T04:30:52;93912.78;;;10.03;54.92
61870;BME280;47810;42.264;23.826;2024-02-04T04:33:19;93904.09;;;10.01;55.30
61870;BME280;47810;42.264;23.826;2024-02-04T04:35:45;93898.91;;;10.14;55.56
61870;BME280;47810;42.264;23.826;2024-02-04T04:38:13;93910.78;;;10.21;56.14
61870;BME280;47810;42.264;23.826;2024-02-04T04:40:40;93892.03;;;10.12;57.02
61870;BME280;47810;42.264;23.826;2024-02-04T04:43:06;93896.41;;;9.98;57.07
61870;BME280;47810;42.264;23.826;2024-02-04T04:45:32;93890.56;;;9.93;57.12
61870;BME280;47810;42.264;23.826;2024-02-04T04:47:58;93897.53;;;9.80;57.95
61870;BME280;47810;42.264;23.826;2024-02-04T04:50:27;93894.97;;;9.78;57.83
61870;BME280;47810;42.264;23.826;2024-02-04T04:52:52;93907.63;;;9.73;58.35
61870;BME280;47810;42.264;23.826;2024-02-04T04:55:19;93914.97;;;9.83;58.02
61870;BME280;47810;42.264;23.826;2024-02-04T04:57:45;93900.53;;;10.02;57.08
61870;BME280;47810;42.264;23.826;2024-02-04T05:00:15;93903.94;;;9.90;57.65
61870;BME280;47810;42.264;23.826;2024-02-04T05:02:45;93901.19;;;10.06;57.43
61870;BME280;47810;42.264;23.826;2024-02-04T05:05:11;93907.22;;;9.94;57.35
61870;BME280;47810;42.264;23.826;2024-02-04T05:07:37;93909.66;;;9.97;57.09
61870;BME280;47810;42.264;23.826;2024-02-04T05:10:04;93947.25;;;9.86;57.82
61870;BME280;47810;42.264;23.826;2024-02-04T05:12:30;93911.09;;;10.02;57.14
61870;BME280;47810;42.264;23.826;2024-02-04T05:14:59;93909.00;;;9.93;57.44
61870;BME280;47810;42.264;23.826;2024-02-04T05:17:28;93914.44;;;10.04;56.18
61870;BME280;47810;42.264;23.826;2024-02-04T05:19:58;93910.59;;;10.10;55.45
61870;BME280;47810;42.264;23.826;2024-02-04T05:22:56;93909.59;;;9.98;55.85
61870;BME280;47810;42.264;23.826;2024-02-04T05:25:24;93914.66;;;9.87;55.87
61870;BME280;47810;42.264;23.826;2024-02-04T05:27:53;93906.75;;;9.87;55.43
61870;BME280;47810;42.264;23.826;2024-02-04T05:30:19;93912.31;;;9.83;55.58
61870;BME280;47810;42.264;23.826;2024-02-04T05:32:45;93926.53;;;9.80;55.72
61870;BME280;47810;42.264;23.826;2024-02-04T05:35:13;93916.91;;;9.65;56.71
61870;BME280;47810;42.264;23.826;2024-02-04T05:41:01;93919.50;;;9.22;59.39
61870;BME280;47810;42.264;23.826;2024-02-04T05:43:27;93899.47;;;9.19;58.88
61870;BME280;47810;42.264;23.826;2024-02-04T05:45:53;93934.56;;;9.34;58.13
61870;BME280;47810;42.264;23.826;2024-02-04T05:48:21;93925.75;;;9.35;58.02
61870;BME280;47810;42.264;23.826;2024-02-04T05:50:47;93921.31;;;9.36;57.82
61870;BME280;47810;42.264;23.826;2024-02-04T05:53:22;93920.66;;;9.32;57.73
61870;BME280;47810;42.264;23.826;2024-02-04T05:55:52;93936.94;;;9.39;57.78
61870;BME280;47810;42.264;23.826;2024-02-04T05:58:21;93938.94;;;9.49;57.02
61870;BME280;47810;42.264;23.826;2024-02-04T06:00:47;93926.88;;;9.45;57.11
61870;BME280;47810;42.264;23.826;2024-02-04T06:03:18;93922.56;;;9.44;56.90
61870;BME280;47810;42.264;23.826;2024-02-04T06:05:43;93913.34;;;9.51;56.37
61870;BME280;47810;42.264;23.826;2024-02-04T06:08:09;93901.50;;;9.73;54.63
61870;BME280;47810;42.264;23.826;2024-02-04T06:10:37;93905.63;;;9.91;54.36
61870;BME280;47810;42.264;23.826;2024-02-04T06:13:03;93919.06;;;10.01;53.83
61870;BME280;47810;42.264;23.826;2024-02-04T06:15:31;93917.28;;;10.01;54.33
61870;BME280;47810;42.264;23.826;2024-02-04T06:17:58;93908.34;;;10.04;53.86
61870;BME280;47810;42.264;23.826;2024-02-04T06:20:24;93921.53;;;10.18;53.96
61870;BME280;47810;42.264;23.826;2024-02-04T06:22:51;93923.41;;;10.16;54.15
61870;BME280;47810;42.264;23.826;2024-02-04T06:25:16;93939.25;;;10.31;53.58
61870;BME280;47810;42.264;23.826;2024-02-04T06:27:42;93923.31;;;10.32;53.46
61870;BME280;47810;42.264;23.826;2024-02-04T06:30:08;93930.28;;;10.19;54.21
61870;BME280;47810;42.264;23.826;2024-02-04T06:32:34;93928.03;;;10.27;53.62
61870;BME280;47810;42.264;23.826;2024-02-04T06:35:01;93943.09;;;10.25;53.66
61870;BME280;47810;42.264;23.826;2024-02-04T06:37:28;93939.88;;;10.20;53.79
61870;BME280;47810;42.264;23.826;2024-02-04T06:39:54;93944.97;;;10.23;53.17
61870;BME280;47810;42.264;23.826;2024-02-04T06:42:19;93947.53;;;10.24;53.36
61870;BME280;47810;42.264;23.826;2024-02-04T06:44:45;93969.09;;;10.17;53.27
61870;BME280;47810;42.264;23.826;2024-02-04T06:47:11;93964.78;;;10.16;53.86
61870;BME280;47810;42.264;23.826;2024-02-04T06:49:43;93981.75;;;10.26;53.08
61870;BME280;47810;42.264;23.826;2024-02-04T06:52:11;94007.28;;;10.25;52.93
61870;BME280;47810;42.264;23.826;2024-02-04T06:54:37;93977.13;;;10.15;52.64
61870;BME280;47810;42.264;23.826;2024-02-04T06:57:03;93987.03;;;10.26;52.89
61870;BME280;47810;42.264;23.826;2024-02-04T06:59:29;93998.22;;;10.15;52.82
61870;BME280;47810;42.264;23.826;2024-02-04T07:01:57;93993.88;;;10.14;52.80
61870;BME280;47810;42.264;23.826;2024-02-04T07:04:23;94000.03;;;10.15;53.01
61870;BME280;47810;42.264;23.826;2024-02-04T07:06:50;93991.44;;;10.25;52.23
61870;BME280;47810;42.264;23.826;2024-02-04T07:09:18;94000.31;;;10.24;52.09
61870;BME280;47810;42.264;23.826;2024-02-04T07:11:45;94005.66;;;10.23;52.27
61870;BME280;47810;42.264;23.826;2024-02-04T07:14:11;93984.22;;;10.43;51.02
61870;BME280;47810;42.264;23.826;2024-02-04T07:16:37;94022.84;;;10.44;51.50
61870;BME280;47810;42.264;23.826;2024-02-04T07:19:03;94011.72;;;10.54;50.76
61870;BME280;47810;42.264;23.826;2024-02-04T07:21:29;94010.00;;;10.53;51.10
61870;BME280;47810;42.264;23.826;2024-02-04T07:23:55;94013.78;;;10.63;50.77
61870;BME280;47810;42.264;23.826;2024-02-04T07:26:21;94003.13;;;10.64;50.52
61870;BME280;47810;42.264;23.826;2024-02-04T07:28:47;93995.78;;;10.55;50.81
61870;BME280;47810;42.264;23.826;2024-02-04T07:31:12;93982.50;;;10.42;51.01
61870;BME280;47810;42.264;23.826;2024-02-04T07:33:38;93982.09;;;10.48;51.12
61870;BME280;47810;42.264;23.826;2024-02-04T07:36:05;93948.56;;;10.51;50.72
61870;BME280;47810;42.264;23.826;2024-02-04T07:38:30;93940.97;;;10.59;50.60
61870;BME280;47810;42.264;23.826;2024-02-04T07:40:56;93949.66;;;10.61;50.51
61870;BME280;47810;42.264;23.826;2024-02-04T07:43:25;93945.03;;;10.64;49.94
61870;BME280;47810;42.264;23.826;2024-02-04T07:45:55;93953.41;;;10.71;49.99
61870;BME280;47810;42.264;23.826;2024-02-04T07:48:22;93941.88;;;10.72;50.71
61870;BME280;47810;42.264;23.826;2024-02-04T07:50:49;93959.25;;;10.76;50.58
61870;BME280;47810;42.264;23.826;2024-02-04T07:53:16;93979.28;;;10.66;50.97
61870;BME280;47810;42.264;23.826;2024-02-04T07:55:42;93997.56;;;10.55;51.52
61870;BME280;47810;42.264;23.826;2024-02-04T07:58:09;93992.47;;;10.52;51.40
61870;BME280;47810;42.264;23.826;2024-02-04T08:00:35;93983.41;;;10.56;51.60
61870;BME280;47810;42.264;23.826;2024-02-04T08:03:02;93962.28;;;10.56;52.16
61870;BME280;47810;42.264;23.826;2024-02-04T08:05:28;93964.53;;;10.62;51.93
61870;BME280;47810;42.264;23.826;2024-02-04T08:07:55;93961.91;;;10.62;52.23
61870;BME280;47810;42.264;23.826;2024-02-04T08:10:22;93968.28;;;10.72;52.61
61870;BME280;47810;42.264;23.826;2024-02-04T08:12:49;93966.22;;;10.77;52.05
61870;BME280;47810;42.264;23.826;2024-02-04T08:15:22;93982.56;;;10.96;52.53
61870;BME280;47810;42.264;23.826;2024-02-04T08:17:50;93993.72;;;10.87;52.30
61870;BME280;47810;42.264;23.826;2024-02-04T08:20:17;93969.03;;;10.88;52.28
61870;BME280;47810;42.264;23.826;2024-02-04T08:22:43;93986.56;;;10.89;52.75
61870;BME280;47810;42.264;23.826;2024-02-04T08:25:09;93985.59;;;10.90;53.00
61870;BME280;47810;42.264;23.826;2024-02-04T08:27:38;93977.47;;;10.93;52.29
61870;BME280;47810;42.264;23.826;2024-02-04T08:30:06;93979.09;;;10.82;52.84
61870;BME280;47810;42.264;23.826;2024-02-04T08:32:33;93980.19;;;10.79;53.00
61870;BME280;47810;42.264;23.826;2024-02-04T08:34:59;94005.75;;;10.79;53.35
61870;BME280;47810;42.264;23.826;2024-02-04T08:37:26;93982.97;;;10.90;52.42
61870;BME280;47810;42.264;23.826;2024-02-04T08:39:52;93989.66;;;10.96;52.48
61870;BME280;47810;42.264;23.826;2024-02-04T08:42:19;93992.59;;;10.91;52.37
61870;BME280;47810;42.264;23.826;2024-02-04T08:44:45;94003.69;;;10.96;52.80
61870;BME280;47810;42.264;23.826;2024-02-04T08:47:12;93998.72;;;11.19;51.31
61870;BME280;47810;42.264;23.826;2024-02-04T08:49:43;93998.22;;;11.39;52.41
61870;BME280;47810;42.264;23.826;2024-02-04T08:52:09;93997.94;;;11.17;52.04
61870;BME280;47810;42.264;23.826;2024-02-04T08:54:35;93981.84;;;11.34;51.70
61870;BME280;47810;42.264;23.826;2024-02-04T08:57:02;94019.66;;;11.62;50.70
61870;BME280;47810;42.264;23.826;2024-02-04T08:59:28;94014.44;;;11.48;50.96
61870;BME280;47810;42.264;23.826;2024-02-04T09:01:57;94001.34;;;11.46;50.36
61870;BME280;47810;42.264;23.826;2024-02-04T09:04:23;93985.50;;;11.59;50.88
61870;BME280;47810;42.264;23.826;2024-02-04T09:06:52;94008.59;;;11.82;50.09
61870;BME280;47810;42.264;23.826;2024-02-04T09:09:42;94012.28;;;11.67;50.66
61870;BME280;47810;42.264;23.826;2024-02-04T09:12:21;94007.91;;;11.53;50.79
61870;BME280;47810;42.264;23.826;2024-02-04T09:14:48;93997.38;;;11.66;51.13
61870;BME280;47810;42.264;23.826;2024-02-04T09:17:19;94006.25;;;11.78;50.37
61870;BME280;47810;42.264;23.826;2024-02-04T09:19:47;94013.31;;;11.92;50.25
61870;BME280;47810;42.264;23.826;2024-02-04T09:22:15;93999.03;;;11.67;49.40
61870;BME280;47810;42.264;23.826;2024-02-04T09:24:47;93983.59;;;11.61;50.29
61870;BME280;47810;42.264;23.826;2024-02-04T09:27:21;93994.78;;;11.92;49.66
61870;BME280;47810;42.264;23.826;2024-02-04T09:29:47;94017.22;;;12.24;49.45
61870;BME280;47810;42.264;23.826;2024-02-04T09:32:18;93999.50;;;12.63;48.29
61870;BME280;47810;42.264;23.826;2024-02-04T09:34:47;94005.38;;;12.79;48.27
61870;BME280;47810;42.264;23.826;2024-02-04T09:37:14;93977.13;;;13.04;47.78
61870;BME280;47810;42.264;23.826;2024-02-04T09:39:41;93998.03;;;12.59;48.26
61870;BME280;47810;42.264;23.826;2024-02-04T09:42:15;94010.31;;;12.47;48.99
61870;BME280;47810;42.264;23.826;2024-02-04T09:44:47;93992.13;;;12.17;50.15
61870;BME280;47810;42.264;23.826;2024-02-04T09:47:20;94002.72;;;12.43;49.60
61870;BME280;47810;42.264;23.826;2024-02-04T09:49:50;94032.78;;;12.16;50.33
61870;BME280;47810;42.264;23.826;2024-02-04T09:52:29;94018.06;;;11.86;51.60
61870;BME280;47810;42.264;23.826;2024-02-04T09:55:00;94015.75;;;11.68;51.30
61870;BME280;47810;42.264;23.826;2024-02-04T09:57:32;94034.31;;;11.80;51.81
61870;BME280;47810;42.264;23.826;2024-02-04T10:00:02;94020.97;;;11.69;51.90
61870;BME280;47810;42.264;23.826;2024-02-04T10:02:37;94030.59;;;11.70;51.64
61870;BME280;47810;42.264;23.826;2024-02-04T10:05:07;94044.56;;;11.72;51.92
61870;BME280;47810;42.264;23.826;2024-02-04T10:07:38;94045.78;;;11.27;53.08
61870;BME280;47810;42.264;23.826;2024-02-04T10:10:07;94042.34;;;11.12;52.63
61870;BME280;47810;42.264;23.826;2024-02-04T10:12:41;94026.09;;;11.18;52.82
61870;BME280;47810;42.264;23.826;2024-02-04T10:15:10;94036.56;;;11.19;52.14
61870;BME280;47810;42.264;23.826;2024-02-04T10:17:42;94023.50;;;11.83;51.73
61870;BME280;47810;42.264;23.826;2024-02-04T10:20:14;94063.28;;;12.60;49.33
61870;BME280;47810;42.264;23.826;2024-02-04T10:22:42;94031.16;;;12.52;49.82
61870;BME280;47810;42.264;23.826;2024-02-04T10:25:20;94037.56;;;11.71;50.69
61870;BME280;47810;42.264;23.826;2024-02-04T10:27:47;94042.72;;;11.60;51.82
61870;BME280;47810;42.264;23.826;2024-02-04T10:30:31;94058.69;;;11.58;50.66
61870;BME280;47810;42.264;23.826;2024-02-04T10:33:02;94034.88;;;11.85;50.23
61870;BME280;47810;42.264;23.826;2024-02-04T10:35:28;94019.44;;;12.30;50.43
61870;BME280;47810;42.264;23.826;2024-02-04T10:38:00;94018.78;;;12.65;48.93
61870;BME280;47810;42.264;23.826;2024-02-04T10:40:32;94026.59;;;12.79;48.98
61870;BME280;47810;42.264;23.826;2024-02-04T10:43:04;94037.38;;;12.89;47.98
61870;BME280;47810;42.264;23.826;2024-02-04T10:45:38;94026.94;;;13.48;47.30
61870;BME280;47810;42.264;23.826;2024-02-04T10:48:22;94047.00;;;13.40;46.24
61870;BME280;47810;42.264;23.826;2024-02-04T10:50:59;94044.13;;;13.43;46.50
61870;BME280;47810;42.264;23.826;2024-02-04T10:53:30;94020.34;;;13.65;46.59
61870;BME280;47810;42.264;23.826;2024-02-04T10:56:00;94031.59;;;13.08;46.19
61870;BME280;47810;42.264;23.826;2024-02-04T10:58:44;94026.59;;;12.67;46.56
61870;BME280;47810;42.264;23.826;2024-02-04T11:01:11;94026.16;;;12.86;46.67
61870;BME280;47810;42.264;23.826;2024-02-04T11:03:45;93999.13;;;13.17;45.67
61870;BME280;47810;42.264;23.826;2024-02-04T11:06:12;93996.56;;;13.64;46.77
61870;BME280;47810;42.264;23.826;2024-02-04T11:08:41;93998.75;;;13.59;45.05
61870;BME280;47810;42.264;23.826;2024-02-04T11:11:10;93993.22;;;13.62;46.15
61870;BME280;47810;42.264;23.826;2024-02-04T11:13:48;93994.28;;;13.59;45.39
61870;BME280;47810;42.264;23.826;2024-02-04T11:16:33;94001.41;;;12.98;45.66
61870;BME280;47810;42.264;23.826;2024-02-04T11:27:22;93998.25;;;12.43;47.46
61870;BME280;47810;42.264;23.826;2024-02-04T11:29:48;93991.72;;;12.23;47.06
61870;BME280;47810;42.264;23.826;2024-02-04T11:32:17;93980.03;;;12.39;46.45
61870;BME280;47810;42.264;23.826;2024-02-04T11:34:47;93989.94;;;12.73;47.39
61870;BME280;47810;42.264;23.826;2024-02-04T11:37:21;93982.44;;;12.54;46.86
61870;BME280;47810;42.264;23.826;2024-02-04T11:39:57;93980.72;;;13.03;45.92
61870;BME280;47810;42.264;23.826;2024-02-04T11:42:24;93989.75;;;12.64;47.89
61870;BME280;47810;42.264;23.826;2024-02-04T11:45:11;93964.16;;;12.26;47.72
61870;BME280;47810;42.264;23.826;2024-02-04T11:47:40;93980.06;;;12.13;48.28
61870;BME280;47810;42.264;23.826;2024-02-04T11:50:27;93971.44;;;11.84;49.50
61870;BME280;47810;42.264;23.826;2024-02-04T11:53:24;93956.16;;;11.89;49.20
61870;BME280;47810;42.264;23.826;2024-02-04T11:55:56;93966.09;;;12.11;48.30
61870;BME280;47810;42.264;23.826;2024-02-04T11:58:23;93946.59;;;12.12;48.75
61870;BME280;47810;42.264;23.826;2024-02-04T12:00:56;93967.75;;;12.38;48.37
61870;BME280;47810;42.264;23.826;2024-02-04T12:03:36;93959.75;;;12.26;48.56
61870;BME280;47810;42.264;23.826;2024-02-04T12:06:03;93951.47;;;12.05;48.51
61870;BME280;47810;42.264;23.826;2024-02-04T12:08:35;93971.56;;;11.82;49.06
61870;BME280;47810;42.264;23.826;2024-02-04T12:11:08;93972.19;;;11.73;50.09
61870;BME280;47810;42.264;23.826;2024-02-04T12:13:34;93987.59;;;11.54;50.26
61870;BME280;47810;42.264;23.826;2024-02-04T12:16:06;93965.84;;;11.63;50.85
61870;BME280;47810;42.264;23.826;2024-02-04T12:18:50;93973.84;;;11.49;50.50
61870;BME280;47810;42.264;23.826;2024-02-04T12:21:16;93984.81;;;11.42;50.18
61870;BME280;47810;42.264;23.826;2024-02-04T12:23:48;93970.25;;;11.50;50.77
61870;BME280;47810;42.264;23.826;2024-02-04T12:26:14;93960.31;;;11.53;51.53
61870;BME280;47810;42.264;23.826;2024-02-04T12:28:43;93955.31;;;12.14;48.91
61870;BME280;47810;42.264;23.826;2024-02-04T12:31:21;93959.38;;;12.44;49.21
61870;BME280;47810;42.264;23.826;2024-02-04T12:33:58;93967.78;;;12.25;48.81
61870;BME280;47810;42.264;23.826;2024-02-04T12:36:28;93982.19;;;12.08;49.41
61870;BME280;47810;42.264;23.826;2024-02-04T12:39:16;93988.13;;;11.99;49.70
61870;BME280;47810;42.264;23.826;2024-02-04T12:41:50;93960.03;;;11.83;49.90
61870;BME280;47810;42.264;23.826;2024-02-04T12:44:18;93954.22;;;11.78;49.65
61870;BME280;47810;42.264;23.826;2024-02-04T12:46:51;93933.19;;;11.89;49.33
61870;BME280;47810;42.264;23.826;2024-02-04T12:49:20;93943.53;;;12.18;48.98
61870;BME280;47810;42.264;23.826;2024-02-04T12:51:50;93937.91;;;12.10;48.30
61870;BME280;47810;42.264;23.826;2024-02-04T12:54:30;93936.22;;;11.83;48.23
61870;BME280;47810;42.264;23.826;2024-02-04T12:56:56;93957.50;;;11.82;48.50
61870;BME280;47810;42.264;23.826;2024-02-04T12:59:27;93978.03;;;11.78;48.26
61870;BME280;47810;42.264;23.826;2024-02-04T13:02:01;93962.78;;;11.82;49.22
61870;BME280;47810;42.264;23.826;2024-02-04T13:04:46;93954.63;;;11.72;49.22
61870;BME280;47810;42.264;23.826;2024-02-04T13:07:14;93967.66;;;11.75;49.48
61870;BME280;47810;42.264;23.826;2024-02-04T13:09:46;93974.06;;;11.58;48.97
61870;BME280;47810;42.264;23.826;2024-02-04T13:12:15;93969.84;;;11.56;49.63
61870;BME280;47810;42.264;23.826;2024-02-04T13:14:45;93970.91;;;11.66;50.25
61870;BME280;47810;42.264;23.826;2024-02-04T13:17:15;93979.38;;;11.71;49.61
61870;BME280;47810;42.264;23.826;2024-02-04T13:19:41;93984.44;;;11.74;49.46